Time;durP1;ratioP1;P1;durP2;ratioP2;P2;SDS_P1;SDS_P2;PMS_P1;PMS_P2;Temp;Humidity;BMP_temperature;BMP_pressure;BME280_temperature;BME280_humidity;BME280_pressure;Samples;Min_cycle;Max_cycle;Signal;HPM_P1;HPM_P2
2021/11/01 04:02:30;;;;;;;51.30;36.72;;;;;;;;;;2037555;29;20036;-96
2021/11/01 06:41:29;;;;;;;87.85;53.88;;;;;;;;;;2040414;29;20028;-96
2021/11/01 06:42:37;;;;;;;86.75;54.90;;;;;;;;;;2041731;29;20043;-96
2021/11/01 06:50:34;;;;;;;82.97;52.58;;;;;;;;;;2223189;23;20056;-96
2021/11/01 06:55:52;;;;;;;83.18;54.88;;;;;;;;;;2037415;29;20114;-96
2021/11/01 14:55:29;;;;;;;21.55;14.77;;;;;;;;;;2050257;28;20090;-67
2021/11/01 14:57:46;;;;;;;21.05;11.30;;;;;;;;;;2010388;27;73942;-67
2021/11/01 15:01:58;;;;;;;15.52;9.45;;;;;;;;;;2087162;28;20029;-67
2021/11/01 15:08:35;;;;;;;15.80;8.88;;;;;;;;;;2087301;28;20037;-70
2021/11/01 15:23:32;;;;;;;16.33;13.52;;;;;;;;;;2029025;27;1933588;-78
2021/11/01 15:31:39;;;;;;;8.32;7.30;;;;;;;;;;1898616;27;1446337;-81
2021/11/01 15:41:58;;;;;;;8.52;6.47;;;;;;;;;;2062099;28;20050;-92
2021/11/01 16:17:20;;;;;;;8.68;5.60;;;;;;;;;;2080498;28;20041;-86
2021/11/01 16:18:27;;;;;;;10.30;6.82;;;;;;;;;;2071469;28;20176;-85
2021/11/01 16:19:33;;;;;;;9.75;7.00;;;;;;;;;;2072243;28;20034;-86
2021/11/01 16:20:33;;;;;;;10.10;7.55;;;;;;;;;;2071658;28;20028;-87
2021/11/01 16:21:34;;;;;;;9.50;6.68;;;;;;;;;;2072900;28;20544;-90
2021/11/01 16:22:35;;;;;;;9.13;6.80;;;;;;;;;;2079673;28;20121;-86
2021/11/01 16:23:38;;;;;;;8.40;7.22;;;;;;;;;;2079682;28;20028;-85
2021/11/01 16:24:39;;;;;;;9.52;7.63;;;;;;;;;;2087794;28;20017;-85
2021/11/01 16:25:39;;;;;;;9.70;6.97;;;;;;;;;;2084430;28;20025;-86
2021/11/01 16:26:42;;;;;;;9.73;6.85;;;;;;;;;;2070792;28;20026;-86
2021/11/01 16:27:47;;;;;;;9.50;7.30;;;;;;;;;;2079978;28;20018;-86
2021/11/01 16:28:51;;;;;;;9.05;6.60;;;;;;;;;;2078183;28;20022;-89
2021/11/01 16:30:13;;;;;;;11.55;7.38;;;;;;;;;;2080199;28;20033;-85
2021/11/01 16:32:30;;;;;;;8.25;6.00;;;;;;;;;;2080585;28;20108;-88
2021/11/01 16:33:32;;;;;;;8.10;6.43;;;;;;;;;;2079610;28;20022;-87
2021/11/01 16:34:35;;;;;;;9.32;6.88;;;;;;;;;;2077158;28;20017;-90
2021/11/01 16:35:42;;;;;;;8.45;6.65;;;;;;;;;;2080026;28;20079;-89
2021/11/01 16:38:19;;;;;;;7.75;5.93;;;;;;;;;;2083728;28;20029;-90
2021/11/01 16:39:17;;;;;;;8.80;5.32;;;;;;;;;;2080039;28;20041;-86
2021/11/01 16:40:17;;;;;;;7.40;5.35;;;;;;;;;;2080936;28;20040;-86
2021/11/01 16:41:19;;;;;;;7.57;6.15;;;;;;;;;;2080925;28;20030;-86
2021/11/01 16:42:24;;;;;;;6.95;5.18;;;;;;;;;;2071289;28;20493;-90
2021/11/01 16:43:27;;;;;;;7.45;5.50;;;;;;;;;;2065995;28;20613;-90
2021/11/01 16:44:50;;;;;;;7.60;5.57;;;;;;;;;;2066456;28;20014;-91
2021/11/01 16:45:53;;;;;;;7.30;5.72;;;;;;;;;;2074743;28;20772;-88
2021/11/01 16:46:53;;;;;;;7.10;5.60;;;;;;;;;;2065752;28;20029;-86
2021/11/01 16:47:55;;;;;;;8.18;5.70;;;;;;;;;;2056283;28;20050;-86
2021/11/01 16:48:56;;;;;;;9.23;5.95;;;;;;;;;;2066668;28;20010;-86
2021/11/01 16:49:58;;;;;;;6.93;5.15;;;;;;;;;;2074547;28;20469;-90
2021/11/01 16:50:59;;;;;;;10.75;6.13;;;;;;;;;;2075265;28;20045;-86
2021/11/01 16:52:08;;;;;;;8.02;6.00;;;;;;;;;;2073675;28;20137;-88
2021/11/01 16:53:08;;;;;;;7.25;4.88;;;;;;;;;;2072715;28;20025;-86
2021/11/01 16:54:11;;;;;;;7.90;6.07;;;;;;;;;;2074652;28;20548;-86
2021/11/01 16:55:17;;;;;;;6.68;5.03;;;;;;;;;;2064508;28;20167;-85
2021/11/01 16:56:50;;;;;;;9.07;5.70;;;;;;;;;;2065548;28;20109;-90
2021/11/01 16:57:46;;;;;;;7.18;5.00;;;;;;;;;;2068861;28;20386;-89
2021/11/01 16:58:48;;;;;;;6.80;5.07;;;;;;;;;;2074772;28;20032;-86
2021/11/01 17:00:11;;;;;;;7.20;5.47;;;;;;;;;;2074809;28;20026;-86
2021/11/01 17:01:16;;;;;;;6.43;4.57;;;;;;;;;;2071559;28;20037;-86
2021/11/01 17:04:22;;;;;;;5.97;4.63;;;;;;;;;;2068686;28;20027;-88
2021/11/01 17:05:47;;;;;;;6.22;5.03;;;;;;;;;;2071266;28;20113;-91
2021/11/01 17:06:59;;;;;;;5.50;4.20;;;;;;;;;;2068927;28;20116;-89
2021/11/01 17:23:02;;;;;;;6.43;4.10;;;;;;;;;;2074554;28;20026;-87
2021/11/01 17:25:15;;;;;;;33.85;23.00;;;;;;;;;;2082060;28;20060;-85
2021/11/01 17:26:34;;;;;;;13.40;9.70;;;;;;;;;;2073406;28;20014;-85
2021/11/01 17:29:29;;;;;;;26.60;19.15;;;;;;;;;;2080510;28;20033;-85
2021/11/01 17:30:48;;;;;;;15.73;12.95;;;;;;;;;;2082579;28;20194;-83
2021/11/01 17:35:56;;;;;;;13.55;9.90;;;;;;;;;;2074448;28;20030;-84
2021/11/01 18:38:00;;;;;;;5.40;2.00;;;;;;;;;;2056994;28;20025;-87
2021/11/01 18:39:24;;;;;;;3.63;1.98;;;;;;;;;;2056816;28;20483;-88
2021/11/01 18:44:38;;;;;;;3.78;1.92;;;;;;;;;;2076239;28;20021;-88
2021/11/01 18:51:37;;;;;;;5.15;2.30;;;;;;;;;;2082125;28;20029;-87
2021/11/01 18:52:38;;;;;;;4.50;2.47;;;;;;;;;;2081434;28;20472;-88
2021/11/01 18:53:41;;;;;;;4.70;2.42;;;;;;;;;;2079230;28;20456;-87
2021/11/01 18:54:49;;;;;;;4.22;1.92;;;;;;;;;;2071331;28;20044;-88
2021/11/01 18:55:53;;;;;;;4.18;2.20;;;;;;;;;;2074220;28;20358;-88
2021/11/01 18:56:56;;;;;;;6.70;2.22;;;;;;;;;;2072995;28;20109;-88
2021/11/01 18:57:57;;;;;;;3.85;2.38;;;;;;;;;;2065378;28;20066;-87
2021/11/01 18:59:00;;;;;;;5.38;2.45;;;;;;;;;;2072301;28;20030;-87
2021/11/01 19:00:05;;;;;;;4.90;2.65;;;;;;;;;;2072615;28;20489;-87
2021/11/01 19:01:08;;;;;;;3.83;2.28;;;;;;;;;;2073076;28;20068;-87
2021/11/01 19:02:32;;;;;;;5.97;2.58;;;;;;;;;;2071608;28;20046;-86
2021/11/01 19:03:34;;;;;;;3.22;2.10;;;;;;;;;;2081793;28;20025;-87
2021/11/01 19:04:41;;;;;;;3.83;2.33;;;;;;;;;;2072913;28;20363;-88
2021/11/01 19:05:45;;;;;;;4.38;2.40;;;;;;;;;;2073989;28;20021;-88
2021/11/01 19:06:51;;;;;;;4.38;1.90;;;;;;;;;;2073059;28;20045;-88
2021/11/01 19:08:22;;;;;;;2.95;1.95;;;;;;;;;;2072740;28;20382;-87
2021/11/01 20:05:27;;;;;;;2.90;1.63;;;;;;;;;;2081609;28;20478;-87
2021/11/01 20:06:43;;;;;;;2.97;1.83;;;;;;;;;;2072743;28;20044;-87
2021/11/01 20:12:28;;;;;;;2.85;1.45;;;;;;;;;;2041379;28;20036;-87
2021/11/01 21:25:11;;;;;;;2.50;1.63;;;;;;;;;;2082724;28;20029;-86
2021/11/01 21:26:18;;;;;;;2.25;1.30;;;;;;;;;;2073764;28;20022;-85
2021/11/01 21:27:22;;;;;;;2.08;1.20;;;;;;;;;;2073770;28;20452;-85
2021/11/01 21:28:22;;;;;;;2.78;1.38;;;;;;;;;;2071992;28;20032;-84
2021/11/01 21:29:23;;;;;;;2.95;1.60;;;;;;;;;;2073832;28;20033;-86
2021/11/01 21:30:23;;;;;;;1.08;0.90;;;;;;;;;;2072791;28;20048;-86
2021/11/01 21:31:23;;;;;;;3.30;1.48;;;;;;;;;;2065461;28;20026;-85
2021/11/01 21:32:24;;;;;;;2.53;1.50;;;;;;;;;;2072916;28;20037;-85
2021/11/01 21:33:30;;;;;;;2.35;1.40;;;;;;;;;;2081881;28;20030;-87
2021/11/01 21:34:36;;;;;;;2.30;1.58;;;;;;;;;;2073702;28;20113;-86
2021/11/01 21:35:44;;;;;;;2.45;1.17;;;;;;;;;;2073982;28;20473;-87
2021/11/01 21:36:44;;;;;;;2.03;1.35;;;;;;;;;;2073695;28;20053;-86
2021/11/01 21:37:45;;;;;;;2.17;1.38;;;;;;;;;;2073342;28;20568;-85
2021/11/01 21:38:46;;;;;;;4.45;1.67;;;;;;;;;;2081805;28;20041;-86
2021/11/01 21:39:46;;;;;;;2.65;1.40;;;;;;;;;;2081846;28;20060;-86
2021/11/01 21:40:48;;;;;;;2.53;1.58;;;;;;;;;;2073651;28;20129;-85
2021/11/01 21:41:48;;;;;;;3.28;1.75;;;;;;;;;;2071727;28;20405;-84
2021/11/01 21:42:51;;;;;;;1.98;1.27;;;;;;;;;;2065604;28;20030;-85
2021/11/01 21:43:53;;;;;;;2.28;1.48;;;;;;;;;;2065904;28;20089;-86
2021/11/01 21:44:53;;;;;;;3.25;1.40;;;;;;;;;;2065112;28;20490;-87
2021/11/01 21:45:54;;;;;;;1.30;1.00;;;;;;;;;;2073365;28;20022;-86
2021/11/01 21:46:54;;;;;;;2.25;1.58;;;;;;;;;;2081831;28;20112;-86
2021/11/01 21:47:55;;;;;;;2.63;1.70;;;;;;;;;;2073109;28;20505;-86
2021/11/01 21:48:55;;;;;;;2.33;1.38;;;;;;;;;;2071891;28;20445;-86
2021/11/01 21:49:56;;;;;;;3.30;1.48;;;;;;;;;;2073568;28;20013;-85
2021/11/01 21:50:57;;;;;;;2.95;1.48;;;;;;;;;;2073801;28;20072;-85
2021/11/01 21:51:57;;;;;;;2.22;1.15;;;;;;;;;;2073591;28;20107;-86
2021/11/01 21:53:00;;;;;;;2.58;1.42;;;;;;;;;;2065119;28;20540;-84
2021/11/01 21:54:26;;;;;;;2.38;1.45;;;;;;;;;;2073127;28;20021;-86
2021/11/01 21:55:25;;;;;;;2.10;1.25;;;;;;;;;;2072204;28;20032;-85
2021/11/01 21:56:27;;;;;;;2.15;1.52;;;;;;;;;;2073348;28;20018;-86
2021/11/01 21:58:55;;;;;;;2.22;1.33;;;;;;;;;;2065959;28;20034;-85
2021/11/01 22:01:52;;;;;;;3.28;1.33;;;;;;;;;;2074299;28;20021;-84
2021/11/01 22:17:54;;;;;;;4.32;1.95;;;;;;;;;;2073875;28;20022;-85
2021/11/01 22:21:15;;;;;;;1.73;1.17;;;;;;;;;;2075193;28;20049;-84
2021/11/01 22:22:35;;;;;;;2.42;1.42;;;;;;;;;;2070169;28;20029;-84
2021/11/01 22:23:47;;;;;;;2.60;1.85;;;;;;;;;;2080483;28;20068;-83
2021/11/01 22:25:07;;;;;;;3.08;1.42;;;;;;;;;;2081145;28;20036;-83
2021/11/01 22:33:54;;;;;;;2.45;1.27;;;;;;;;;;2073638;28;20029;-84
2021/11/01 22:38:53;;;;;;;2.05;1.38;;;;;;;;;;2074058;28;20454;-84
2021/11/01 22:40:00;;;;;;;2.55;1.50;;;;;;;;;;2073461;28;20120;-84
2021/11/01 22:41:13;;;;;;;3.15;1.60;;;;;;;;;;2073273;28;20025;-84
2021/11/01 22:42:26;;;;;;;4.35;1.50;;;;;;;;;;2070197;28;20018;-86
2021/11/01 22:44:58;;;;;;;3.08;1.70;;;;;;;;;;2073187;28;20505;-86
2021/11/01 22:48:46;;;;;;;1.83;1.20;;;;;;;;;;2047284;28;20030;-85
2021/11/01 22:56:35;;;;;;;3.03;1.73;;;;;;;;;;2074182;28;20030;-86
2021/11/01 22:57:35;;;;;;;2.78;1.40;;;;;;;;;;2064992;28;20027;-85
2021/11/01 22:58:40;;;;;;;2.40;1.67;;;;;;;;;;2064760;28;20065;-84
2021/11/01 22:59:40;;;;;;;2.92;1.65;;;;;;;;;;2064608;28;20149;-84
2021/11/01 23:00:49;;;;;;;2.50;1.50;;;;;;;;;;2064492;28;20526;-85
2021/11/01 23:01:50;;;;;;;2.65;1.85;;;;;;;;;;2063545;28;20019;-84
2021/11/01 23:02:57;;;;;;;1.95;1.42;;;;;;;;;;2064925;28;20504;-84
2021/11/01 23:04:09;;;;;;;1.98;1.20;;;;;;;;;;2073787;28;20029;-86
2021/11/01 23:05:27;;;;;;;1.80;1.33;;;;;;;;;;2073048;28;20373;-86
2021/11/01 23:29:16;;;;;;;2.40;1.25;;;;;;;;;;2070394;28;20075;-85
2021/11/01 23:31:59;;;;;;;3.67;2.13;;;;;;;;;;2073806;28;20030;-84
2021/11/01 23:32:59;;;;;;;3.72;2.10;;;;;;;;;;2072733;28;20015;-85
2021/11/01 23:34:04;;;;;;;3.67;1.90;;;;;;;;;;2064848;28;20027;-84
2021/11/01 23:35:05;;;;;;;4.45;2.40;;;;;;;;;;2063980;28;20019;-84
2021/11/01 23:36:07;;;;;;;2.70;2.00;;;;;;;;;;2064463;28;20027;-86
2021/11/01 23:37:08;;;;;;;3.65;2.00;;;;;;;;;;2065333;28;20041;-86
2021/11/01 23:38:08;;;;;;;3.13;1.98;;;;;;;;;;2072695;28;20116;-85
2021/11/01 23:39:10;;;;;;;3.05;2.05;;;;;;;;;;2072924;28;20493;-85
2021/11/01 23:40:10;;;;;;;3.15;2.15;;;;;;;;;;2072970;28;20022;-84
2021/11/01 23:41:11;;;;;;;3.45;2.33;;;;;;;;;;2064536;28;20021;-86
2021/11/01 23:42:11;;;;;;;2.97;2.08;;;;;;;;;;2063171;28;20457;-86
2021/11/01 23:43:14;;;;;;;2.85;2.13;;;;;;;;;;2064618;28;20021;-83
2021/11/01 23:44:18;;;;;;;3.45;2.42;;;;;;;;;;2064803;28;20158;-84
2021/11/01 23:45:19;;;;;;;3.50;2.50;;;;;;;;;;2064871;28;20433;-83
2021/11/01 23:46:19;;;;;;;3.45;2.50;;;;;;;;;;2064983;28;20029;-84
2021/11/01 23:47:20;;;;;;;3.40;2.40;;;;;;;;;;2072553;28;20057;-84
2021/11/01 23:48:21;;;;;;;3.55;2.17;;;;;;;;;;2063156;28;20037;-83
2021/11/01 23:49:21;;;;;;;4.00;3.00;;;;;;;;;;2064881;28;20015;-85
2021/11/01 23:50:22;;;;;;;4.13;2.83;;;;;;;;;;2064741;28;20533;-84
2021/11/01 23:51:32;;;;;;;3.60;2.60;;;;;;;;;;2064542;28;20023;-84
2021/11/01 23:52:40;;;;;;;3.67;2.72;;;;;;;;;;2075288;28;20033;-85
2021/11/01 23:55:15;;;;;;;4.00;2.80;;;;;;;;;;2073795;28;20022;-86
2021/11/01 23:56:16;;;;;;;4.55;3.13;;;;;;;;;;2066468;28;20426;-86
2021/11/01 23:57:19;;;;;;;4.55;3.55;;;;;;;;;;2066592;28;20479;-84
2021/11/01 23:58:20;;;;;;;5.22;3.97;;;;;;;;;;2074757;28;20053;-84
2021/11/01 23:59:20;;;;;;;4.55;3.55;;;;;;;;;;2075166;28;20492;-83
